Sea Otter MTB Cross Country


XC Sport 25-29 Male (169) Cross Country Results

PlaceFirstNameLastNameBibHomeTeamTimeTime GapGap From Leader 
1BrianButler696Monterey, CA USANA01:29:34  
2MarcusHayward709Mesa, AZ USANA01:30:3000:00:5600:00:56 
3dannymcnaughton715martinez, CA USANA01:30:3200:00:0200:00:58 
4JasonLowetz2759Los Angeles, CA USASBCU01:32:1100:01:3900:02:37 
5BryanCusick703Goleta , CA USANA01:32:2600:00:1500:02:52 
6ToddStoehr2648Lodi, CA USAUnattached01:33:3500:01:0900:04:01 
7Aaron Goldman2579Hermosa Beach, CA USAUnattached01:33:4400:00:0900:04:10 
8JosephBrody2781San Jose, CA USAOsu Alumni01:34:0200:00:1800:04:28 
9AndrewHammond2313, USASpecialized01:34:1300:00:1100:04:39 
10JoshuaCarling698Rancho Cordova, CA USANA01:34:2400:00:1100:04:50 
11Tulio JoséFuentes Braeuner707Guatemala City, AL GUANA01:35:3300:01:0900:05:59 
12ZacSimpson2634Huntsville, AL USAUnattached01:35:33  
13MeredithObendorfer2656Redwood City, CA USAUnattached02:26:4600:51:1300:57:12 
13Chris Sallen723Belmont, CA USANA01:35:56-00:50:5000:06:22 
14JustinCileo700Hermosa Beach, CA USANA01:36:0000:00:0400:06:26 
15JeremyTempleman2617Redlands, CA USAUnattached01:37:3000:01:3000:07:56 
16PeterD'Aquanni704Murrieta, CA USAIE Bikes Racing01:37:5100:00:2100:08:17 
17ShawnJohnson2318, USASpecialized01:39:1300:01:2200:09:39 
18RaymondYowell2395Pacific Grove, CA USAUnattached01:40:0100:00:4800:10:27 
19MattLeonard712San Francisco, CA USATeam Wrong Way01:40:2000:00:1900:10:46 
20GenerGalope1357Salinas, CA U.S.APushing 2401:40:5400:00:3400:11:20 
21EricRumpf722Los Gatos, CA USAMTBReview.com01:41:2400:00:3000:11:50 
22MattBeadon692San Mateo, CA USANA01:41:4300:00:1900:12:09 
23Brett Bulter694Monterey, CA USAUnattached01:43:1900:01:3600:13:45 
24ALVINPOBLACION719SAN BERNARDINO, CA USATHERAPY GET PHYSICAL01:44:2400:01:0500:14:50 
25JasonWilliams725San Luis Obispo, CA USANA01:44:2600:00:0200:14:52 
26MatthewCarlson699Paradise, CA USANA01:44:4700:00:2100:15:13 
27lucianorodriguez721salinas, CA USANA01:45:0000:00:1300:15:26 
28KitSteven2337, USAUnattached01:46:4700:01:4700:17:13 
29FrederickHeebreger2602, GuatemalaUnattached01:53:1100:06:2400:23:37 
30ManuelGarcia2827Palo ALto, CA USAUnattached01:53:3600:00:2500:24:02 
31DAVIDBRANDEBERRY693FOLSOM, CA USANA01:54:3600:01:0000:25:02 
32JonPalmer2683Redwood City, CA USAUnattached01:54:3900:00:0300:25:05 
33brookburley695sunnyvale, CA USANA01:54:4000:00:0100:25:06 
34NateCarey697Wilson, WY USANA01:55:0900:00:2900:25:35 
35RyanConnolly702Menlo Park, CA USAPure Irish Stout01:58:1100:03:0200:28:37 
36Jonathan Clark2466Los Gatos, CA USABike Wave01:59:0100:00:5000:29:27 
37AndrewFrench706Salinas, CA USAFox Racing Shox02:00:1600:01:1500:30:42 
38QuinnWalker724San Francisco, CA USANA02:00:2200:00:0600:30:48 
39WilsonJui711San Rafael, CA USANA02:01:3700:01:1500:32:03 
40MarkStone2336, USAyeti-cycles02:02:3600:00:5900:33:02 
41AndrewLizotte714Palo Alto, CA USANA02:03:1700:00:4100:33:43 
42RyanWenker2589Orangeville, CA USAUnattached02:05:3800:02:2100:36:04 
43MattPeterson718San Francisco, CA USARoaring Mouse Cycles02:07:0700:01:2900:37:33 
44JeffreyConnelly701El Cerrito, CA USAUnattached02:08:4400:01:3700:39:10 
45MattRenaud720Newport Beach, CA USANA02:30:1800:21:3401:00:44 
46SeanLeslie713Jackson, WY USAKona Media Pimps02:30:5000:00:3201:01:16 
47JustinEnglish705Vacaville, CA USATeam Hamana02:36:0500:05:1501:06:31 
48GrantKorgan2756Reno, NV USAKORG02:37:4800:01:4301:08:14 
49MarkMcWilliams716Pacific Grove, CA USANA02:59:0700:21:1901:29:33